Time;durP1;ratioP1;P1;durP2;ratioP2;P2;SDS_P1;SDS_P2;PMS_P1;PMS_P2;Temp;Humidity;BMP_temperature;BMP_pressure;BME280_temperature;BME280_humidity;BME280_pressure;Samples;Min_cycle;Max_cycle;Signal;HPM_P1;HPM_P2
2023/09/16 00:01:37;;;;;;;0.68;0.45;;;17.50;70.80;;;;;;5094400;28;20112;-71
2023/09/16 00:04:03;;;;;;;0.98;0.77;;;17.60;71.00;;;;;;5095075;28;20036;-71
2023/09/16 00:09:33;;;;;;;0.28;0.28;;;17.50;70.80;;;;;;5095172;28;20043;-71
2023/09/16 00:12:00;;;;;;;1.05;0.43;;;17.40;71.10;;;;;;5092829;28;20401;-71
2023/09/16 00:14:29;;;;;;;0.98;0.47;;;17.30;70.70;;;;;;5093656;28;20044;-71
2023/09/16 00:16:58;;;;;;;0.45;0.40;;;17.40;71.40;;;;;;5094678;28;20404;-71
2023/09/16 00:19:24;;;;;;;0.63;0.57;;;17.40;71.40;;;;;;5095101;28;20082;-70
2023/09/16 00:21:51;;;;;;;2.35;1.52;;;17.40;71.30;;;;;;5093936;28;20040;-70
2023/09/16 00:24:18;;;;;;;1.02;0.85;;;17.40;71.50;;;;;;5093328;28;20043;-70
2023/09/16 00:26:44;;;;;;;2.92;0.70;;;17.40;71.40;;;;;;5094579;28;20028;-70
2023/09/16 00:29:10;;;;;;;0.55;0.40;;;17.40;71.50;;;;;;5093652;28;20040;-70
2023/09/16 00:31:36;;;;;;;0.57;0.50;;;17.30;71.40;;;;;;5092463;28;20044;-70
2023/09/16 00:34:03;;;;;;;0.35;0.30;;;17.30;71.20;;;;;;5093381;28;20504;-70
2023/09/16 00:36:29;;;;;;;3.75;1.55;;;17.30;70.90;;;;;;5094541;28;20442;-70
2023/09/16 00:38:55;;;;;;;0.88;0.35;;;17.20;70.80;;;;;;5093258;28;20043;-71
2023/09/16 00:41:22;;;;;;;0.75;0.47;;;17.10;70.90;;;;;;5092341;28;20127;-70
2023/09/16 00:43:48;;;;;;;;;;;17.10;70.70;;;;;;5094980;28;20362;-70
2023/09/16 00:46:14;;;;;;;0.88;0.55;;;17.10;70.70;;;;;;5093858;28;19922;-70
2023/09/16 00:48:45;;;;;;;0.30;0.30;;;17.00;70.70;;;;;;5094491;28;20039;-70
2023/09/16 00:51:13;;;;;;;0.75;0.63;;;16.90;69.80;;;;;;5093229;28;20047;-70
2023/09/16 00:53:42;;;;;;;0.20;0.20;;;16.90;70.40;;;;;;5093095;28;20065;-70
2023/09/16 00:56:08;;;;;;;2.72;1.30;;;16.90;70.80;;;;;;5092673;28;20060;-71
2023/09/16 00:58:35;;;;;;;;;;;16.90;71.00;;;;;;5094146;28;20058;-71
2023/09/16 01:01:01;;;;;;;0.77;0.50;;;16.90;70.80;;;;;;5093267;28;19927;-70
2023/09/16 01:03:28;;;;;;;;;;;16.90;71.30;;;;;;5093465;28;20024;-70
2023/09/16 01:05:55;;;;;;;0.25;0.20;;;16.90;70.80;;;;;;5092221;28;19923;-70
2023/09/16 01:08:22;;;;;;;0.93;0.73;;;16.90;71.10;;;;;;5092750;28;20066;-70
2023/09/16 01:10:48;;;;;;;0.55;0.40;;;16.90;71.40;;;;;;5091541;28;20048;-70
2023/09/16 01:13:15;;;;;;;;;;;16.90;71.60;;;;;;5093302;28;20027;-70
2023/09/16 01:16:24;;;;;;;0.50;0.50;;;16.90;71.30;;;;;;5075298;28;19920;-70
2023/09/16 01:18:59;;;;;;;0.63;0.43;;;16.90;71.50;;;;;;5093891;28;20137;-70
2023/09/16 01:21:25;;;;;;;0.98;0.47;;;16.90;71.60;;;;;;5092980;28;20040;-70
2023/09/16 01:24:28;;;;;;;0.20;0.20;;;16.90;71.90;;;;;;5094053;28;20036;-70
2023/09/16 01:26:54;;;;;;;0.85;0.55;;;16.80;71.90;;;;;;5075108;28;20039;-70
2023/09/16 01:29:21;;;;;;;1.00;0.32;;;16.80;72.20;;;;;;5093842;28;20028;-70
2023/09/16 01:31:47;;;;;;;0.88;0.68;;;16.80;72.20;;;;;;5091402;28;20416;-70
2023/09/16 01:34:52;;;;;;;0.60;0.30;;;16.80;72.10;;;;;;5075141;28;20062;-70
2023/09/16 01:37:22;;;;;;;0.55;0.40;;;16.80;72.10;;;;;;5091912;28;20413;-70
2023/09/16 01:40:10;;;;;;;1.60;0.40;;;16.80;72.10;;;;;;5092179;28;20044;-71
2023/09/16 01:42:36;;;;;;;0.77;0.63;;;16.80;72.30;;;;;;5092983;28;20409;-70
2023/09/16 01:45:04;;;;;;;0.90;0.82;;;16.70;71.60;;;;;;5093643;28;20034;-70
2023/09/16 01:47:30;;;;;;;0.25;0.20;;;16.60;71.60;;;;;;5075062;28;20071;-70
2023/09/16 01:49:56;;;;;;;1.15;0.55;;;16.60;71.80;;;;;;5092048;28;20047;-70
2023/09/16 01:52:22;;;;;;;;;;;16.60;71.70;;;;;;5091358;28;20035;-70
2023/09/16 01:54:49;;;;;;;2.67;1.65;;;16.50;71.00;;;;;;5093446;28;20370;-70
2023/09/16 01:57:15;;;;;;;2.35;1.00;;;16.50;71.40;;;;;;5091337;28;20468;-71
2023/09/16 01:59:41;;;;;;;5.38;2.30;;;16.50;72.00;;;;;;5091833;28;20054;-71
2023/09/16 02:02:08;;;;;;;0.70;0.30;;;16.50;72.20;;;;;;5090737;28;20094;-71
2023/09/16 02:04:34;;;;;;;2.03;1.17;;;16.50;72.30;;;;;;5091860;28;20032;-71
2023/09/16 02:07:00;;;;;;;1.60;1.00;;;16.60;72.50;;;;;;5091530;28;20059;-71
2023/09/16 02:09:26;;;;;;;0.52;0.38;;;16.60;72.70;;;;;;5092810;28;20032;-71
2023/09/16 02:11:52;;;;;;;0.77;0.47;;;16.50;72.20;;;;;;5091168;28;20040;-70
2023/09/16 02:14:20;;;;;;;0.20;0.20;;;16.60;72.80;;;;;;5091458;28;20117;-70
2023/09/16 02:16:46;;;;;;;1.45;0.70;;;16.50;72.90;;;;;;5074249;28;20493;-71
2023/09/16 02:19:12;;;;;;;1.63;1.08;;;16.50;72.50;;;;;;5074368;28;20075;-71
2023/09/16 02:21:38;;;;;;;0.85;0.70;;;16.60;73.20;;;;;;5090397;28;20036;-70
2023/09/16 02:24:05;;;;;;;0.52;0.50;;;16.60;73.30;;;;;;5074401;28;20439;-70
2023/09/16 02:26:31;;;;;;;2.63;0.85;;;16.50;72.80;;;;;;5092102;28;20038;-70
2023/09/16 02:28:57;;;;;;;;;;;16.60;73.50;;;;;;5091660;28;20032;-71
2023/09/16 02:31:26;;;;;;;1.17;1.05;;;16.50;73.30;;;;;;5091460;28;20418;-70
2023/09/16 02:34:14;;;;;;;0.65;0.47;;;16.50;73.30;;;;;;5092354;28;20032;-71
2023/09/16 02:36:40;;;;;;;0.20;0.20;;;16.50;73.20;;;;;;5090914;28;20032;-70
2023/09/16 02:39:06;;;;;;;0.45;0.45;;;16.50;73.20;;;;;;5090869;28;20046;-70
2023/09/16 02:41:32;;;;;;;0.70;0.40;;;16.40;73.30;;;;;;5090028;28;20036;-70
2023/09/16 02:43:58;;;;;;;0.50;0.40;;;16.40;73.40;;;;;;5092184;28;20044;-70
2023/09/16 02:46:24;;;;;;;1.73;1.25;;;16.40;73.60;;;;;;5091822;28;20036;-70
2023/09/16 02:48:50;;;;;;;1.70;1.20;;;16.40;73.70;;;;;;5092091;28;20036;-71
2023/09/16 02:51:16;;;;;;;1.33;0.70;;;16.40;73.60;;;;;;5089473;28;20132;-71
2023/09/16 02:53:43;;;;;;;0.35;0.35;;;16.40;73.30;;;;;;5092196;28;20040;-71
2023/09/16 02:56:10;;;;;;;2.35;0.90;;;16.30;73.00;;;;;;5091935;28;20043;-71
2023/09/16 02:58:36;;;;;;;0.45;0.40;;;16.30;73.20;;;;;;5092067;28;20085;-70
2023/09/16 03:01:20;;;;;;;0.95;0.73;;;16.30;73.00;;;;;;5091024;28;20035;-71
2023/09/16 03:03:46;;;;;;;0.52;0.32;;;16.30;73.10;;;;;;5091887;28;20093;-71
2023/09/16 03:06:13;;;;;;;0.88;0.50;;;16.20;73.10;;;;;;5073396;28;20097;-71
2023/09/16 03:08:39;;;;;;;0.82;0.77;;;16.20;74.10;;;;;;5073845;28;20040;-71
2023/09/16 03:11:06;;;;;;;1.88;0.70;;;16.20;73.20;;;;;;5090514;28;20370;-70
2023/09/16 03:13:32;;;;;;;1.65;1.13;;;16.20;73.10;;;;;;5090508;28;20036;-70
2023/09/16 03:16:19;;;;;;;0.45;0.40;;;16.20;73.30;;;;;;5090078;28;20044;-70
2023/09/16 03:18:53;;;;;;;1.38;0.93;;;16.20;73.40;;;;;;5090518;28;20443;-71
2023/09/16 03:21:22;;;;;;;0.47;0.30;;;16.20;74.20;;;;;;5089360;28;20461;-70
2023/09/16 03:23:48;;;;;;;1.10;0.82;;;16.20;73.10;;;;;;5091643;28;20135;-70
2023/09/16 03:26:15;;;;;;;0.57;0.40;;;16.20;73.20;;;;;;5090061;28;20032;-70
2023/09/16 03:28:47;;;;;;;0.65;0.47;;;16.10;73.30;;;;;;5090350;28;20148;-70
2023/09/16 03:31:16;;;;;;;0.75;0.47;;;16.20;73.20;;;;;;5073012;28;20075;-70
2023/09/16 03:33:42;;;;;;;0.75;0.75;;;16.10;73.10;;;;;;5091677;28;20042;-70
2023/09/16 03:36:09;;;;;;;0.80;0.47;;;16.10;72.80;;;;;;5091101;28;20033;-71
2023/09/16 03:38:45;;;;;;;4.13;0.80;;;16.00;72.80;;;;;;5091662;28;20036;-70
2023/09/16 03:41:11;;;;;;;0.40;0.35;;;16.00;72.90;;;;;;5089530;28;20067;-70
2023/09/16 03:43:37;;;;;;;1.02;0.50;;;16.00;73.10;;;;;;5091551;28;20036;-70
2023/09/16 03:46:03;;;;;;;0.98;0.73;;;16.00;73.10;;;;;;5091182;28;20400;-70
2023/09/16 03:48:30;;;;;;;0.55;0.40;;;16.10;73.20;;;;;;5091448;28;20040;-70
2023/09/16 03:50:56;;;;;;;0.65;0.45;;;16.00;73.20;;;;;;5089096;28;20040;-71
2023/09/16 03:53:25;;;;;;;0.32;0.30;;;16.00;73.10;;;;;;5090290;28;20028;-70
2023/09/16 03:56:11;;;;;;;2.10;0.85;;;16.00;73.10;;;;;;5089849;28;20124;-70
2023/09/16 03:58:38;;;;;;;0.57;0.43;;;16.10;73.30;;;;;;5090362;28;20213;-71
2023/09/16 04:01:04;;;;;;;1.13;0.60;;;16.00;73.10;;;;;;5090515;28;20439;-70
2023/09/16 04:03:30;;;;;;;;;;;16.00;73.30;;;;;;5090442;28;20028;-70
2023/09/16 04:05:58;;;;;;;0.67;0.40;;;16.10;73.20;;;;;;5072873;28;19915;-70
2023/09/16 04:08:44;;;;;;;0.68;0.38;;;16.10;73.30;;;;;;5091296;28;20024;-70
2023/09/16 04:11:11;;;;;;;0.75;0.75;;;16.10;73.70;;;;;;5081164;28;20074;-70
2023/09/16 04:13:37;;;;;;;1.48;0.80;;;16.10;73.70;;;;;;5110360;28;20032;-71
2023/09/16 04:16:03;;;;;;;0.75;0.52;;;16.10;72.80;;;;;;5110008;28;20043;-70
2023/09/16 04:18:29;;;;;;;0.75;0.75;;;16.00;72.90;;;;;;5111534;28;20043;-71
2023/09/16 04:20:56;;;;;;;0.70;0.30;;;16.00;72.90;;;;;;5102055;28;20505;-71
2023/09/16 04:23:22;;;;;;;;;;;16.00;72.80;;;;;;5090613;28;20369;-70
2023/09/16 04:26:08;;;;;;;2.17;1.20;;;15.90;72.60;;;;;;5090667;28;19920;-71
2023/09/16 04:28:34;;;;;;;0.93;0.60;;;15.90;72.80;;;;;;5089987;28;20040;-70
2023/09/16 04:31:00;;;;;;;1.02;0.70;;;15.90;72.70;;;;;;5088777;28;20093;-70
2023/09/16 04:33:26;;;;;;;0.93;0.50;;;15.80;72.40;;;;;;5090111;28;20171;-71
2023/09/16 04:35:53;;;;;;;0.75;0.30;;;15.70;72.40;;;;;;5093044;28;20043;-71
2023/09/16 04:38:19;;;;;;;0.68;0.40;;;15.70;72.30;;;;;;5094586;28;20040;-70
2023/09/16 04:40:49;;;;;;;0.77;0.40;;;15.60;72.10;;;;;;5092342;28;20093;-71
2023/09/16 04:43:15;;;;;;;0.88;0.70;;;15.50;71.80;;;;;;5093134;28;20030;-71
2023/09/16 04:45:48;;;;;;;;;;;15.50;72.60;;;;;;5093377;28;20036;-71
2023/09/16 04:48:15;;;;;;;1.30;0.38;;;15.50;72.40;;;;;;5093288;28;19919;-70
2023/09/16 04:50:45;;;;;;;6.78;0.30;;;15.50;72.50;;;;;;5091852;28;20040;-71
2023/09/16 04:53:11;;;;;;;0.60;0.20;;;15.50;72.70;;;;;;5093356;28;20032;-71
2023/09/16 04:55:38;;;;;;;0.25;0.22;;;15.50;72.30;;;;;;5075900;28;20386;-70
2023/09/16 04:58:04;;;;;;;0.50;0.50;;;15.60;72.90;;;;;;5093193;28;20039;-71
2023/09/16 05:00:33;;;;;;;0.77;0.50;;;15.60;73.00;;;;;;5091968;28;20040;-71
2023/09/16 05:03:02;;;;;;;0.82;0.65;;;15.60;73.00;;;;;;5093044;28;20143;-70
2023/09/16 05:05:28;;;;;;;0.63;0.63;;;15.60;72.90;;;;;;5092564;28;20032;-71
2023/09/16 05:07:55;;;;;;;1.08;0.32;;;15.60;73.10;;;;;;5092758;28;20552;-70
2023/09/16 05:10:21;;;;;;;1.27;0.93;;;15.60;72.10;;;;;;5091717;28;20032;-70
2023/09/16 05:12:47;;;;;;;0.50;0.20;;;15.60;72.40;;;;;;5092566;28;20046;-71
2023/09/16 05:15:13;;;;;;;0.68;0.47;;;15.70;72.60;;;;;;5093928;28;20374;-71
2023/09/16 05:17:40;;;;;;;1.25;1.02;;;15.70;72.70;;;;;;5092845;28;20058;-70
2023/09/16 05:20:07;;;;;;;;;;;15.70;72.10;;;;;;5092547;28;20043;-71
2023/09/16 05:22:34;;;;;;;0.75;0.65;;;15.80;72.50;;;;;;5092938;28;19908;-70
2023/09/16 05:25:00;;;;;;;1.42;1.05;;;15.80;72.00;;;;;;5094109;28;20036;-71
2023/09/16 05:27:26;;;;;;;1.02;0.40;;;15.80;72.80;;;;;;5091930;28;20073;-71
2023/09/16 05:29:52;;;;;;;3.92;0.40;;;15.90;73.00;;;;;;5093573;28;20373;-71
2023/09/16 05:32:19;;;;;;;0.98;0.70;;;15.90;73.10;;;;;;5091455;28;20047;-71
2023/09/16 05:34:45;;;;;;;0.57;0.45;;;16.10;73.20;;;;;;5093793;28;20059;-70
2023/09/16 05:37:11;;;;;;;0.68;0.45;;;16.10;72.90;;;;;;5093368;28;20032;-71
2023/09/16 05:39:38;;;;;;;1.38;0.80;;;16.20;72.90;;;;;;5075301;28;20036;-70
2023/09/16 05:42:04;;;;;;;1.80;1.23;;;16.30;72.80;;;;;;5092559;28;20111;-71
2023/09/16 05:44:31;;;;;;;0.82;0.52;;;16.50;72.70;;;;;;5092059;28;20051;-70
2023/09/16 05:46:58;;;;;;;1.40;0.85;;;16.50;73.50;;;;;;5091726;28;20489;-71
2023/09/16 05:49:25;;;;;;;2.05;1.08;;;16.70;73.40;;;;;;5093423;28;20082;-70
2023/09/16 05:51:51;;;;;;;0.90;0.60;;;16.70;73.30;;;;;;5092484;28;20032;-70
2023/09/16 05:54:18;;;;;;;;;;;16.80;73.40;;;;;;5093862;28;20044;-71
2023/09/16 05:56:46;;;;;;;0.77;0.55;;;16.90;73.40;;;;;;5091561;28;19922;-71
2023/09/16 05:59:14;;;;;;;0.40;0.40;;;17.00;73.30;;;;;;5091860;28;20545;-70
2023/09/16 06:01:40;;;;;;;1.52;1.33;;;17.10;73.60;;;;;;5090771;28;20040;-70
2023/09/16 06:04:08;;;;;;;;;;;17.10;74.20;;;;;;5075518;28;20098;-70
2023/09/16 06:06:35;;;;;;;3.72;1.73;;;17.20;74.10;;;;;;5091310;28;20011;-70
2023/09/16 06:11:46;;;;;;;0.82;0.75;;;17.30;73.40;;;;;;5090645;28;20047;-72
2023/09/16 06:14:12;;;;;;;2.92;1.02;;;17.50;74.00;;;;;;5091441;28;20044;-71
2023/09/16 06:16:38;;;;;;;0.90;0.73;;;17.60;73.60;;;;;;5091375;28;20040;-71
2023/09/16 06:19:04;;;;;;;2.90;1.42;;;17.70;73.50;;;;;;5091778;28;20044;-71
2023/09/16 06:21:30;;;;;;;2.10;1.20;;;17.80;73.40;;;;;;5090513;28;20036;-71
2023/09/16 06:23:57;;;;;;;;;;;17.90;72.80;;;;;;5091745;28;20036;-71
2023/09/16 06:26:24;;;;;;;1.27;0.75;;;18.00;73.40;;;;;;5100645;28;19916;-71
2023/09/16 06:28:50;;;;;;;0.43;0.20;;;18.00;72.90;;;;;;5091564;28;20046;-71
2023/09/16 06:31:16;;;;;;;0.95;0.63;;;18.10;73.00;;;;;;5072612;28;20070;-71
2023/09/16 06:33:42;;;;;;;1.95;1.25;;;18.20;73.40;;;;;;5091294;28;20552;-71
2023/09/16 06:36:08;;;;;;;1.25;0.98;;;18.30;73.10;;;;;;5090561;28;20032;-71
2023/09/16 06:38:34;;;;;;;;;;;18.40;72.80;;;;;;5091579;28;20436;-71
2023/09/16 06:41:00;;;;;;;2.10;0.73;;;18.60;72.80;;;;;;5091356;28;19916;-71
2023/09/16 06:43:28;;;;;;;;;;;18.70;72.40;;;;;;5092681;28;20032;-71
2023/09/16 06:45:54;;;;;;;0.50;0.47;;;18.80;72.50;;;;;;5090616;28;20350;-71
2023/09/16 06:48:20;;;;;;;0.95;0.82;;;18.80;72.20;;;;;;5090428;28;20043;-71
2023/09/16 06:50:47;;;;;;;1.35;1.13;;;18.90;72.40;;;;;;5089687;28;20036;-71
2023/09/16 06:53:13;;;;;;;0.30;0.30;;;19.00;72.50;;;;;;5090842;28;20028;-71
2023/09/16 06:55:39;;;;;;;1.38;1.00;;;19.00;72.50;;;;;;5091857;28;20301;-71
2023/09/16 06:58:06;;;;;;;1.50;0.40;;;19.10;72.80;;;;;;5090563;28;20028;-71
2023/09/16 07:00:33;;;;;;;2.15;1.05;;;19.20;72.70;;;;;;5091338;28;20036;-71
2023/09/16 07:02:59;;;;;;;1.85;0.52;;;19.40;72.50;;;;;;5090678;28;20032;-71
2023/09/16 07:05:28;;;;;;;0.15;0.15;;;19.40;72.50;;;;;;5090224;28;20047;-71
2023/09/16 07:07:54;;;;;;;2.80;1.45;;;19.50;72.60;;;;;;5090762;28;20447;-71
2023/09/16 07:10:21;;;;;;;0.15;0.13;;;19.60;72.60;;;;;;5089245;28;20048;-71
2023/09/16 07:12:47;;;;;;;0.30;0.30;;;19.60;72.00;;;;;;5090796;28;20032;-71
2023/09/16 07:15:14;;;;;;;0.98;0.60;;;19.70;72.50;;;;;;5091486;28;20377;-71
2023/09/16 07:17:40;;;;;;;0.82;0.47;;;19.80;72.40;;;;;;5090419;28;20032;-71
2023/09/16 07:20:06;;;;;;;0.43;0.32;;;20.00;72.10;;;;;;5091121;28;20051;-71
2023/09/16 07:22:32;;;;;;;0.32;0.20;;;20.20;70.80;;;;;;5090395;28;20024;-71
2023/09/16 07:24:58;;;;;;;0.68;0.43;;;20.40;70.80;;;;;;5091892;28;20066;-71
2023/09/16 07:27:24;;;;;;;0.68;0.63;;;20.50;70.40;;;;;;5091202;28;20036;-71
2023/09/16 07:29:51;;;;;;;0.95;0.80;;;20.90;69.50;;;;;;5091718;28;20070;-71
2023/09/16 07:32:16;;;;;;;;;;;21.60;67.50;;;;;;5089588;28;20492;-72
2023/09/16 07:34:42;;;;;;;2.47;0.65;;;22.30;66.70;;;;;;5091905;28;20011;-71
2023/09/16 07:37:09;;;;;;;1.17;0.63;;;23.00;64.10;;;;;;5091004;28;20078;-71
2023/09/16 07:39:34;;;;;;;;;;;23.50;62.20;;;;;;5090719;28;20569;-71
2023/09/16 07:42:00;;;;;;;0.98;0.68;;;24.20;61.20;;;;;;5090503;28;19916;-71
2023/09/16 07:44:26;;;;;;;;;;;24.90;59.30;;;;;;5092341;28;20066;-71
2023/09/16 07:46:52;;;;;;;0.50;0.28;;;25.30;56.70;;;;;;5089752;28;19912;-71
2023/09/16 07:49:18;;;;;;;2.17;0.80;;;25.90;54.10;;;;;;5090207;28;20039;-71
2023/09/16 07:51:46;;;;;;;1.85;0.73;;;26.60;52.40;;;;;;5089459;28;20557;-71
2023/09/16 07:54:14;;;;;;;0.40;0.32;;;27.10;50.80;;;;;;5090164;28;20392;-72
2023/09/16 07:56:40;;;;;;;2.55;1.40;;;27.70;49.70;;;;;;5091178;28;20036;-72
2023/09/16 07:59:06;;;;;;;0.73;0.50;;;28.00;46.20;;;;;;5090132;28;20044;-72
2023/09/16 08:01:32;;;;;;;1.48;0.80;;;28.30;44.50;;;;;;5072372;28;20089;-72
2023/09/16 08:03:58;;;;;;;0.68;0.50;;;28.90;43.70;;;;;;5089999;28;20047;-72
2023/09/16 08:06:26;;;;;;;2.67;0.63;;;29.50;43.20;;;;;;5089476;28;20024;-72
2023/09/16 08:08:54;;;;;;;1.42;0.82;;;30.20;40.60;;;;;;5091964;28;20064;-72
2023/09/16 08:11:20;;;;;;;0.98;0.52;;;30.90;38.90;;;;;;5100329;28;20086;-72
2023/09/16 08:13:47;;;;;;;1.38;0.88;;;31.50;37.60;;;;;;5095050;28;20064;-72
2023/09/16 08:16:13;;;;;;;0.93;0.60;;;32.20;36.10;;;;;;5093353;28;20028;-72
2023/09/16 08:18:39;;;;;;;1.25;0.60;;;32.80;35.10;;;;;;5094842;28;20036;-72
2023/09/16 08:21:05;;;;;;;0.40;0.38;;;33.20;34.00;;;;;;5094260;28;20397;-72
2023/09/16 08:23:31;;;;;;;0.35;0.35;;;33.70;33.20;;;;;;5094974;28;20032;-72
2023/09/16 08:25:57;;;;;;;3.72;1.20;;;34.30;32.10;;;;;;5094385;28;20082;-72
2023/09/16 08:28:23;;;;;;;0.70;0.50;;;34.70;31.20;;;;;;5093152;28;20477;-72
2023/09/16 08:30:51;;;;;;;0.68;0.65;;;35.20;30.90;;;;;;5093369;28;20115;-73
2023/09/16 08:33:17;;;;;;;0.95;0.47;;;35.70;29.50;;;;;;5127264;27;20447;-72
2023/09/16 08:35:43;;;;;;;0.57;0.57;;;36.40;28.80;;;;;;5092952;28;20020;-72
2023/09/16 08:38:09;;;;;;;0.60;0.60;;;37.00;28.20;;;;;;5091937;28;20028;-73
2023/09/16 08:40:35;;;;;;;0.60;0.40;;;37.60;27.70;;;;;;5092652;28;20047;-73
2023/09/16 08:43:39;;;;;;;5.35;0.93;;;37.90;26.20;;;;;;5092493;28;20035;-73
2023/09/16 08:46:10;;;;;;;1.27;0.88;;;38.10;26.00;;;;;;5092121;28;20418;-74
2023/09/16 08:48:45;;;;;;;0.45;0.40;;;38.20;25.80;;;;;;5093294;28;20028;-74
2023/09/16 08:51:15;;;;;;;0.80;0.70;;;38.10;25.10;;;;;;5092187;28;20040;-74
2023/09/16 08:53:43;;;;;;;3.53;1.05;;;38.30;24.60;;;;;;5093381;28;20389;-74
2023/09/16 08:56:10;;;;;;;0.80;0.80;;;38.50;23.90;;;;;;5092868;28;20032;-75
2023/09/16 08:58:39;;;;;;;1.73;1.17;;;38.70;23.70;;;;;;5076554;28;20067;-74
2023/09/16 09:01:05;;;;;;;0.82;0.70;;;38.80;22.90;;;;;;5092279;28;20036;-73
2023/09/16 09:03:52;;;;;;;1.00;0.75;;;39.00;23.50;;;;;;5094037;28;20077;-74
2023/09/16 09:06:20;;;;;;;1.35;1.08;;;39.40;22.80;;;;;;5091585;28;20068;-74
2023/09/16 09:08:47;;;;;;;2.10;1.35;;;39.30;22.80;;;;;;5105637;28;20040;-73
2023/09/16 09:11:15;;;;;;;0.95;0.63;;;39.30;22.00;;;;;;5101242;28;20496;-74
2023/09/16 09:14:01;;;;;;;1.00;0.90;;;40.00;22.80;;;;;;5112831;28;20050;-73
2023/09/16 09:16:29;;;;;;;0.88;0.75;;;41.00;21.00;;;;;;5112758;28;20054;-74
2023/09/16 09:19:15;;;;;;;1.60;1.48;;;41.60;20.50;;;;;;5113111;28;20047;-74
2023/09/16 09:21:43;;;;;;;2.75;1.33;;;42.40;19.40;;;;;;5085093;28;20037;-73
2023/09/16 09:24:09;;;;;;;2.13;1.27;;;42.90;19.10;;;;;;5089788;28;20488;-74
2023/09/16 09:26:35;;;;;;;0.75;0.70;;;43.40;19.10;;;;;;5093493;28;20047;-75
2023/09/16 09:29:02;;;;;;;1.63;1.02;;;43.50;18.90;;;;;;5092560;28;20040;-73
2023/09/16 09:31:30;;;;;;;1.15;1.02;;;43.60;18.60;;;;;;5103327;28;20040;-75
2023/09/16 09:33:56;;;;;;;1.10;0.90;;;44.00;18.30;;;;;;5096025;28;20043;-73
2023/09/16 09:36:24;;;;;;;1.10;1.00;;;44.30;17.70;;;;;;5113438;28;20413;-73
2023/09/16 09:38:50;;;;;;;1.05;1.00;;;44.50;17.60;;;;;;5112439;28;20476;-74
2023/09/16 09:41:17;;;;;;;1.42;1.00;;;45.20;17.20;;;;;;5102479;28;20036;-73
2023/09/16 09:43:43;;;;;;;0.63;0.60;;;45.60;17.30;;;;;;5092079;28;20071;-73
2023/09/16 09:46:10;;;;;;;0.70;0.70;;;45.60;16.50;;;;;;5108869;28;20032;-73
2023/09/16 09:48:36;;;;;;;1.23;1.13;;;45.70;16.00;;;;;;5125979;27;20040;-73
2023/09/16 09:51:03;;;;;;;1.75;1.20;;;45.80;16.30;;;;;;5090822;28;20036;-73
2023/09/16 09:53:30;;;;;;;0.68;0.68;;;45.90;15.50;;;;;;5093051;28;20112;-74
2023/09/16 09:55:56;;;;;;;18.88;1.38;;;46.00;15.90;;;;;;5091428;28;20028;-73
2023/09/16 09:58:25;;;;;;;1.27;1.17;;;45.70;15.60;;;;;;5091776;28;20489;-73
2023/09/16 10:00:52;;;;;;;1.45;0.95;;;44.90;16.00;;;;;;5117169;27;20538;-73
2023/09/16 10:03:22;;;;;;;1.55;0.95;;;44.00;17.00;;;;;;5079317;28;20087;-72
2023/09/16 10:05:48;;;;;;;1.30;0.93;;;43.00;18.00;;;;;;5087740;28;20085;-73
2023/09/16 10:08:14;;;;;;;1.10;1.00;;;41.60;19.20;;;;;;5084543;28;20096;-73
2023/09/16 10:10:41;;;;;;;2.15;1.17;;;40.00;20.60;;;;;;5084839;28;20048;-72
2023/09/16 10:13:08;;;;;;;0.80;0.80;;;39.20;21.70;;;;;;5051348;28;20036;-72
2023/09/16 10:15:54;;;;;;;1.40;1.00;;;39.00;21.60;;;;;;5064139;28;20560;-72
2023/09/16 10:18:20;;;;;;;2.25;1.20;;;39.20;21.10;;;;;;5089277;28;20028;-72
2023/09/16 10:20:48;;;;;;;2.17;0.93;;;38.50;21.90;;;;;;5085056;28;20535;-72
2023/09/16 10:23:14;;;;;;;1.85;1.00;;;38.40;22.40;;;;;;5083787;28;20537;-73
2023/09/16 10:25:40;;;;;;;0.47;0.47;;;39.90;20.40;;;;;;5082502;28;20388;-72
2023/09/16 10:28:08;;;;;;;1.00;0.82;;;41.10;20.30;;;;;;5081852;28;20107;-73
2023/09/16 10:30:36;;;;;;;1.00;0.73;;;40.50;20.20;;;;;;5081405;28;20109;-73
2023/09/16 10:33:23;;;;;;;0.40;0.40;;;38.70;21.50;;;;;;5099711;28;20122;-73
2023/09/16 10:35:49;;;;;;;0.50;0.50;;;37.50;22.90;;;;;;5084238;28;20032;-73
2023/09/16 10:38:15;;;;;;;1.42;1.33;;;36.30;24.10;;;;;;5083120;28;20035;-73
2023/09/16 10:40:43;;;;;;;0.60;0.60;;;35.80;24.90;;;;;;5083530;27;20480;-72
2023/09/16 10:43:10;;;;;;;0.73;0.55;;;35.40;25.30;;;;;;5081615;28;20089;-72
2023/09/16 10:45:38;;;;;;;1.67;1.23;;;35.50;25.20;;;;;;5095220;28;20504;-72
2023/09/16 10:48:05;;;;;;;1.77;1.02;;;35.30;25.50;;;;;;5084322;28;20564;-73
2023/09/16 10:53:22;;;;;;;1.75;0.75;;;33.90;27.80;;;;;;5083928;28;20047;-72
2023/09/16 10:56:06;;;;;;;0.85;0.68;;;33.20;28.20;;;;;;5076029;28;20029;-73
2023/09/16 10:58:50;;;;;;;0.88;0.80;;;33.00;28.50;;;;;;5064786;28;20111;-72
2023/09/16 11:01:58;;;;;;;0.88;0.52;;;32.40;29.10;;;;;;5062717;28;20051;-73
2023/09/16 11:04:24;;;;;;;0.88;0.77;;;32.00;30.00;;;;;;5083719;28;20032;-73
2023/09/16 11:06:51;;;;;;;0.43;0.43;;;31.70;30.10;;;;;;5083895;28;20051;-73
2023/09/16 11:09:36;;;;;;;0.90;0.77;;;31.60;30.30;;;;;;5085723;28;20123;-72
2023/09/16 11:12:02;;;;;;;0.50;0.50;;;31.40;30.70;;;;;;5082485;28;20075;-73
2023/09/16 11:14:29;;;;;;;0.68;0.52;;;31.10;30.60;;;;;;5083933;28;20445;-73
2023/09/16 11:16:55;;;;;;;0.40;0.40;;;30.90;30.30;;;;;;5083141;28;20082;-72
2023/09/16 11:22:10;;;;;;;0.77;0.60;;;31.00;31.00;;;;;;5111321;27;20036;-74
2023/09/16 11:24:37;;;;;;;0.65;0.50;;;30.80;30.80;;;;;;5083272;28;20485;-74
2023/09/16 11:27:04;;;;;;;0.68;0.68;;;30.60;31.30;;;;;;5117429;28;20028;-74
2023/09/16 11:32:15;;;;;;;0.68;0.57;;;32.00;30.20;;;;;;5111565;27;20054;-75
2023/09/16 11:34:44;;;;;;;1.40;0.95;;;34.80;27.10;;;;;;5083533;28;20032;-74
2023/09/16 11:37:10;;;;;;;0.30;0.30;;;35.80;25.50;;;;;;5074728;28;20033;-74
2023/09/16 11:39:43;;;;;;;1.40;0.88;;;36.10;25.40;;;;;;5065728;28;20166;-75
2023/09/16 11:42:10;;;;;;;0.40;0.40;;;38.30;22.60;;;;;;5082708;28;20040;-75
2023/09/16 11:44:37;;;;;;;0.52;0.52;;;36.60;23.20;;;;;;5089547;28;20119;-74
2023/09/16 11:47:04;;;;;;;0.60;0.60;;;36.60;24.30;;;;;;5087812;28;20086;-74
2023/09/16 11:49:49;;;;;;;1.27;0.57;;;38.50;22.40;;;;;;5087926;28;20044;-75
2023/09/16 11:52:16;;;;;;;0.90;0.85;;;40.80;20.00;;;;;;5087879;28;20101;-74
2023/09/16 11:54:45;;;;;;;0.40;0.40;;;42.20;18.70;;;;;;5088821;28;20040;-74
2023/09/16 11:57:12;;;;;;;1.35;0.82;;;42.70;17.40;;;;;;5076582;28;20024;-75
2023/09/16 11:59:38;;;;;;;0.80;0.57;;;43.10;17.70;;;;;;5087457;28;20036;-74
2023/09/16 12:02:05;;;;;;;0.63;0.50;;;41.50;18.10;;;;;;5086526;28;20508;-74
2023/09/16 12:04:34;;;;;;;0.98;0.73;;;41.00;19.30;;;;;;5109383;28;20031;-74
2023/09/16 12:07:00;;;;;;;1.38;1.08;;;42.90;17.80;;;;;;5109019;28;20040;-73
2023/09/16 12:09:27;;;;;;;1.45;1.05;;;44.70;16.30;;;;;;5107901;28;20417;-74
2023/09/16 12:11:54;;;;;;;0.80;0.80;;;44.90;15.60;;;;;;5107827;28;20146;-73
2023/09/16 12:14:22;;;;;;;0.95;0.80;;;45.20;15.00;;;;;;5107541;28;20190;-73
2023/09/16 12:17:09;;;;;;;1.35;1.10;;;43.80;15.40;;;;;;5106978;28;20027;-73
2023/09/16 12:19:35;;;;;;;2.33;0.98;;;42.30;17.40;;;;;;5107469;28;20079;-73
2023/09/16 12:22:01;;;;;;;0.82;0.60;;;40.90;18.40;;;;;;5106635;28;20089;-74
2023/09/16 12:24:27;;;;;;;0.70;0.68;;;42.30;18.00;;;;;;5108574;28;20044;-74
2023/09/16 12:26:54;;;;;;;0.93;0.90;;;44.10;16.60;;;;;;5107018;28;20067;-74
2023/09/16 12:29:20;;;;;;;1.13;1.00;;;44.00;16.20;;;;;;5109117;28;20036;-74
2023/09/16 12:31:47;;;;;;;0.88;0.77;;;43.80;16.20;;;;;;5105922;28;20036;-74
2023/09/16 12:34:32;;;;;;;0.43;0.43;;;43.70;15.20;;;;;;5090408;28;20418;-73
2023/09/16 12:36:58;;;;;;;1.13;1.02;;;42.00;17.40;;;;;;5108254;28;20047;-74
2023/09/16 12:39:25;;;;;;;1.55;1.00;;;41.20;17.90;;;;;;5089986;28;20024;-73
2023/09/16 12:41:53;;;;;;;0.80;0.80;;;42.30;17.30;;;;;;5105807;28;20036;-73
2023/09/16 12:44:19;;;;;;;0.68;0.68;;;44.10;16.10;;;;;;5106936;28;20492;-74
2023/09/16 12:46:45;;;;;;;2.28;2.08;;;45.70;14.90;;;;;;5108306;28;20476;-74
2023/09/16 12:49:11;;;;;;;0.80;0.73;;;46.80;13.70;;;;;;5089503;28;20047;-73
2023/09/16 12:51:38;;;;;;;1.05;0.95;;;47.80;13.10;;;;;;5105954;28;20461;-73
2023/09/16 12:54:05;;;;;;;1.17;0.95;;;48.00;12.90;;;;;;5107540;28;20036;-74
2023/09/16 12:56:36;;;;;;;1.33;1.20;;;48.10;13.40;;;;;;5107664;27;20024;-74
2023/09/16 12:59:03;;;;;;;1.33;1.23;;;48.70;12.80;;;;;;5108458;28;20119;-73
2023/09/16 13:01:30;;;;;;;0.82;0.82;;;49.50;12.30;;;;;;5105715;28;20585;-73
2023/09/16 13:03:57;;;;;;;0.93;0.90;;;49.70;11.80;;;;;;5089547;28;20036;-74
2023/09/16 13:06:23;;;;;;;1.95;1.42;;;50.20;12.30;;;;;;5106715;28;20114;-73
2023/09/16 13:08:49;;;;;;;0.80;0.80;;;50.70;11.70;;;;;;5106729;28;20267;-73
2023/09/16 13:11:15;;;;;;;1.10;1.00;;;50.90;11.50;;;;;;5097620;27;20101;-73